Time;durP1;ratioP1;P1;durP2;ratioP2;P2;SDS_P1;SDS_P2;PMS_P1;PMS_P2;Temp;Humidity;BMP_temperature;BMP_pressure;BME280_temperature;BME280_humidity;BME280_pressure;Samples;Min_cycle;Max_cycle;Signal;HPM_P1;HPM_P2
2021/07/20 00:01:29;;;;;;;;;;;16.40;99.90;;;;;;5072477;28;19999;-76
2021/07/20 00:03:55;;;;;;;;;;;16.40;99.90;;;;;;5074658;28;19919;-76
2021/07/20 00:06:21;;;;;;;;;;;16.40;99.90;;;;;;5072413;28;19920;-75
2021/07/20 00:08:46;;;;;;;;;;;16.30;99.90;;;;;;5084793;28;19928;-76
2021/07/20 00:11:12;;;;;;;;;;;16.30;99.90;;;;;;5073782;28;19912;-76
2021/07/20 00:13:38;;;;;;;;;;;16.30;99.90;;;;;;5072042;28;20398;-76
2021/07/20 00:16:04;;;;;;;;;;;16.20;99.90;;;;;;5069466;28;19912;-76
2021/07/20 00:18:30;;;;;;;;;;;16.20;99.90;;;;;;5070196;28;20288;-75
2021/07/20 00:20:57;;;;;;;;;;;16.20;99.90;;;;;;5070135;28;20003;-76
2021/07/20 00:23:22;;;;;;;;;;;16.10;99.90;;;;;;5072890;28;19965;-75
2021/07/20 00:25:49;;;;;;;;;;;16.10;99.90;;;;;;5064687;28;20000;-76
2021/07/20 00:28:15;;;;;;;;;;;16.10;99.90;;;;;;5073373;28;19924;-76
2021/07/20 00:30:41;;;;;;;;;;;16.10;99.90;;;;;;5078640;28;19912;-75
2021/07/20 00:33:06;;;;;;;;;;;16.00;99.90;;;;;;5091802;28;19909;-75
2021/07/20 00:35:32;;;;;;;;;;;16.00;99.90;;;;;;5087731;28;19920;-76
2021/07/20 00:37:58;;;;;;;;;;;16.00;99.90;;;;;;5090863;28;19924;-75
2021/07/20 00:40:23;;;;;;;;;;;16.00;99.90;;;;;;5080072;28;20361;-75
2021/07/20 00:42:49;;;;;;;;;;;16.00;99.90;;;;;;5084547;28;19916;-74
2021/07/20 00:45:16;;;;;;;;;;;16.00;99.90;;;;;;5088524;28;19915;-74
2021/07/20 00:47:42;;;;;;;;;;;15.90;99.90;;;;;;5089592;28;19928;-73
2021/07/20 00:50:09;;;;;;;;;;;15.90;99.90;;;;;;5080901;28;19984;-75
2021/07/20 00:52:35;;;;;;;;;;;15.90;99.90;;;;;;5095733;28;19921;-76
2021/07/20 00:55:02;;;;;;;;;;;15.90;99.90;;;;;;5086737;28;19917;-76
2021/07/20 00:57:28;;;;;;;;;;;15.90;99.90;;;;;;5088167;28;19923;-75
2021/07/20 00:59:54;;;;;;;;;;;15.90;99.90;;;;;;5094479;28;19921;-74
2021/07/20 01:02:19;;;;;;;;;;;15.90;99.90;;;;;;5095691;28;19921;-76
2021/07/20 01:04:45;;;;;;;;;;;15.90;99.90;;;;;;5094197;28;19932;-74
2021/07/20 01:07:10;;;;;;;;;;;15.80;99.90;;;;;;5083393;28;19917;-77
2021/07/20 01:09:36;;;;;;;;;;;15.80;99.90;;;;;;5070207;28;19990;-76
2021/07/20 01:12:02;;;;;;;;;;;15.70;99.90;;;;;;5065315;28;19951;-75
2021/07/20 01:14:27;;;;;;;;;;;15.60;99.90;;;;;;5071924;28;19919;-75
2021/07/20 01:16:55;;;;;;;;;;;15.70;99.90;;;;;;5073241;28;19921;-76
2021/07/20 01:19:22;;;;;;;;;;;15.60;99.90;;;;;;5069135;28;19912;-76
2021/07/20 01:21:51;;;;;;;;;;;15.60;99.90;;;;;;5067921;28;19920;-76
2021/07/20 01:24:17;;;;;;;;;;;15.60;99.90;;;;;;5072640;28;19916;-75
2021/07/20 01:26:43;;;;;;;;;;;15.60;99.90;;;;;;5066825;28;19919;-75
2021/07/20 01:29:09;;;;;;;;;;;15.50;99.90;;;;;;5071229;28;20312;-75
2021/07/20 01:31:38;;;;;;;;;;;15.60;99.90;;;;;;5067434;28;19912;-76
2021/07/20 01:34:05;;;;;;;;;;;15.50;99.90;;;;;;5070411;28;20019;-76
2021/07/20 01:36:31;;;;;;;;;;;15.50;99.90;;;;;;5061375;28;19920;-75
2021/07/20 01:38:57;;;;;;;;;;;15.50;99.90;;;;;;5059586;28;19913;-75
2021/07/20 01:41:23;;;;;;;;;;;15.60;99.90;;;;;;5057723;28;20361;-76
2021/07/20 01:43:55;;;;;;;;;;;15.50;99.90;;;;;;5068568;28;19966;-76
2021/07/20 01:46:21;;;;;;;;;;;15.50;99.90;;;;;;5065617;28;20379;-76
2021/07/20 01:48:48;;;;;;;;;;;15.50;99.90;;;;;;5070731;28;19999;-76
2021/07/20 01:51:14;;;;;;;;;;;15.50;99.90;;;;;;5060737;28;20357;-76
2021/07/20 01:53:40;;;;;;;;;;;15.40;99.90;;;;;;5058575;28;20007;-75
2021/07/20 01:56:07;;;;;;;;;;;15.50;99.90;;;;;;5063819;28;19943;-75
2021/07/20 01:58:32;;;;;;;;;;;15.40;99.90;;;;;;5065526;28;20295;-75
2021/07/20 02:00:58;;;;;;;;;;;15.40;99.90;;;;;;5056519;28;19912;-76
2021/07/20 02:08:46;;;;;;;;;;;15.40;99.90;;;;;;5065393;28;19931;-76
2021/07/20 02:11:17;;;;;;;;;;;15.40;99.90;;;;;;5070276;28;19921;-76
2021/07/20 02:13:46;;;;;;;;;;;15.40;99.90;;;;;;5060935;28;19916;-75
2021/07/20 02:16:13;;;;;;;;;;;15.40;99.90;;;;;;5063487;28;19948;-77
2021/07/20 02:18:41;;;;;;;;;;;15.40;99.90;;;;;;5056763;28;19919;-75
2021/07/20 02:21:08;;;;;;;;;;;15.40;99.90;;;;;;5061374;28;19954;-76
2021/07/20 02:23:34;;;;;;;;;;;15.40;99.90;;;;;;5063737;28;19951;-75
2021/07/20 02:26:00;;;;;;;;;;;15.40;99.90;;;;;;5061290;28;19913;-76
2021/07/20 02:28:26;;;;;;;;;;;15.30;99.90;;;;;;5054820;28;19917;-75
2021/07/20 02:30:52;;;;;;;;;;;15.30;99.90;;;;;;5071507;28;19912;-75
2021/07/20 02:33:20;;;;;;;;;;;15.30;99.90;;;;;;5070255;28;19927;-76
2021/07/20 02:35:46;;;;;;;;;;;15.30;99.90;;;;;;5068145;28;20286;-76
2021/07/20 02:38:11;;;;;;;;;;;15.20;99.90;;;;;;5069859;28;20361;-74
2021/07/20 02:40:37;;;;;;;;;;;15.20;99.90;;;;;;5067861;28;19955;-76
2021/07/20 02:43:03;;;;;;;;;;;15.20;99.90;;;;;;5061762;28;19971;-76
2021/07/20 02:45:30;;;;;;;;;;;15.10;99.90;;;;;;5061576;28;19912;-75
2021/07/20 02:47:56;;;;;;;;;;;15.10;99.90;;;;;;5065369;28;20258;-76
2021/07/20 02:50:22;;;;;;;;;;;15.10;99.90;;;;;;5068719;28;20273;-75
2021/07/20 02:52:49;;;;;;;;;;;15.10;99.90;;;;;;5067435;28;19920;-76
2021/07/20 02:55:16;;;;;;;;;;;15.10;99.90;;;;;;5059757;28;19917;-76
2021/07/20 02:57:43;;;;;;;;;;;15.10;99.90;;;;;;5067219;28;20270;-76
2021/07/20 03:00:10;;;;;;;;;;;15.00;99.90;;;;;;5066534;28;20069;-75
2021/07/20 03:02:36;;;;;;;;;;;15.10;99.90;;;;;;5057277;28;19920;-76
2021/07/20 03:05:04;;;;;;;;;;;15.00;99.90;;;;;;5058382;28;19912;-76
2021/07/20 03:07:30;;;;;;;;;;;15.00;99.90;;;;;;5056866;28;19923;-76
2021/07/20 03:09:57;;;;;;;;;;;14.90;99.90;;;;;;5059061;28;19924;-76
2021/07/20 03:12:24;;;;;;;;;;;14.90;99.90;;;;;;5069132;28;19916;-76
2021/07/20 03:14:51;;;;;;;;;;;14.90;99.90;;;;;;5062897;28;19919;-76
2021/07/20 03:17:17;;;;;;;;;;;14.90;99.90;;;;;;5071251;28;19920;-76
2021/07/20 03:19:44;;;;;;;;;;;14.90;99.90;;;;;;5067089;28;20308;-77
2021/07/20 03:22:12;;;;;;;;;;;14.80;99.90;;;;;;5055265;28;20353;-76
2021/07/20 03:24:38;;;;;;;;;;;14.80;99.90;;;;;;5066023;28;19919;-75
2021/07/20 03:27:05;;;;;;;;;;;14.80;99.90;;;;;;5056472;28;20051;-76
2021/07/20 03:29:31;;;;;;;;;;;14.70;99.90;;;;;;5062974;28;19921;-76
2021/07/20 03:31:57;;;;;;;;;;;14.70;99.90;;;;;;5066195;28;20487;-76
2021/07/20 03:34:23;;;;;;;;;;;14.70;99.90;;;;;;5062245;28;19913;-76
2021/07/20 03:36:49;;;;;;;;;;;14.60;99.90;;;;;;5066027;28;19913;-76
2021/07/20 03:39:15;;;;;;;;;;;14.60;99.90;;;;;;5059819;28;19931;-75
2021/07/20 03:41:42;;;;;;;;;;;14.60;99.90;;;;;;5059899;28;20273;-76
2021/07/20 03:44:10;;;;;;;;;;;14.60;99.90;;;;;;5062257;28;20396;-76
2021/07/20 03:46:36;;;;;;;;;;;14.60;99.90;;;;;;5068940;28;19912;-76
2021/07/20 03:49:02;;;;;;;;;;;14.50;99.90;;;;;;5065269;28;19932;-75
2021/07/20 03:51:29;;;;;;;;;;;14.50;99.90;;;;;;5062260;28;20615;-76
2021/07/20 03:53:55;;;;;;;;;;;14.50;99.90;;;;;;5060787;28;19923;-76
2021/07/20 03:56:21;;;;;;;;;;;14.50;99.90;;;;;;5063453;28;19913;-76
2021/07/20 03:58:47;;;;;;;;;;;14.40;99.90;;;;;;5060093;28;19920;-76
2021/07/20 04:01:13;;;;;;;;;;;14.40;99.90;;;;;;5064904;28;20381;-76
2021/07/20 04:03:40;;;;;;;;;;;14.50;99.90;;;;;;5060374;28;19959;-77
2021/07/20 04:06:10;;;;;;;;;;;14.50;99.90;;;;;;5059726;28;20280;-75
2021/07/20 04:08:37;;;;;;;;;;;14.50;99.90;;;;;;5060066;28;20614;-75
2021/07/20 04:11:03;;;;;;;;;;;14.50;99.90;;;;;;5056255;28;19919;-76
2021/07/20 04:13:29;;;;;;;;;;;14.60;99.90;;;;;;5061949;28;19920;-76
2021/07/20 04:15:56;;;;;;;;;;;14.60;99.90;;;;;;5059660;28;20361;-76
2021/07/20 04:18:22;;;;;;;;;;;14.60;99.90;;;;;;5066110;28;19913;-76
2021/07/20 04:20:48;;;;;;;;;;;14.70;99.90;;;;;;5060718;28;20285;-76
2021/07/20 04:23:14;;;;;;;;;;;14.70;99.90;;;;;;5061993;28;19920;-77
2021/07/20 04:25:43;;;;;;;;;;;14.70;99.90;;;;;;5053559;28;19975;-75
2021/07/20 04:28:09;;;;;;;;;;;14.70;99.90;;;;;;5066835;28;20327;-76
2021/07/20 04:30:36;;;;;;;;;;;14.70;99.90;;;;;;5067434;28;19916;-75
2021/07/20 04:33:01;;;;;;;;;;;14.70;99.90;;;;;;5057792;28;20416;-76
2021/07/20 04:35:28;;;;;;;;;;;14.70;99.90;;;;;;5062189;28;19917;-76
2021/07/20 04:37:54;;;;;;;;;;;14.70;99.90;;;;;;5060932;28;19936;-76
2021/07/20 04:40:20;;;;;;;;;;;14.70;99.90;;;;;;5064727;28;19912;-76
2021/07/20 04:42:47;;;;;;;;;;;14.80;99.90;;;;;;5059066;28;19913;-76
2021/07/20 04:45:12;;;;;;;;;;;14.80;99.90;;;;;;5060812;28;19913;-76
2021/07/20 04:47:39;;;;;;;;;;;14.90;99.90;;;;;;5066613;28;19923;-76
2021/07/20 04:50:05;;;;;;;;;;;15.00;99.90;;;;;;5060250;28;20015;-75
2021/07/20 04:52:32;;;;;;;;;;;15.00;99.90;;;;;;5060254;28;19919;-76
2021/07/20 04:54:58;;;;;;;;;;;15.00;99.90;;;;;;5068558;28;19919;-76
2021/07/20 04:57:23;;;;;;;;;;;15.10;99.90;;;;;;5065995;28;19921;-76
2021/07/20 04:59:49;;;;;;;;;;;15.10;99.90;;;;;;5064208;28;19913;-76
2021/07/20 05:02:15;;;;;;;;;;;15.10;99.90;;;;;;5061147;28;19916;-76
2021/07/20 05:04:41;;;;;;;;;;;15.20;99.90;;;;;;5062349;28;20288;-76
2021/07/20 05:07:09;;;;;;;;;;;15.30;99.90;;;;;;5059110;28;20025;-76
2021/07/20 05:09:35;;;;;;;;;;;15.30;99.90;;;;;;5062509;28;19921;-76
2021/07/20 05:12:01;;;;;;;;;;;15.40;99.90;;;;;;5072830;28;19920;-75
2021/07/20 05:14:26;;;;;;;;;;;15.40;99.90;;;;;;5062083;28;19914;-75
2021/07/20 05:16:53;;;;;;;;;;;15.50;99.90;;;;;;5066696;28;19966;-76
2021/07/20 05:19:19;;;;;;;;;;;15.50;99.90;;;;;;5064086;28;19919;-75
2021/07/20 05:21:45;;;;;;;;;;;15.60;99.90;;;;;;5066767;28;20007;-75
2021/07/20 05:24:10;;;;;;;;;;;15.70;99.90;;;;;;5060050;28;20360;-75
2021/07/20 05:26:37;;;;;;;;;;;15.70;99.90;;;;;;5062057;28;19920;-75
2021/07/20 05:29:03;;;;;;;;;;;15.80;99.90;;;;;;5061236;28;19917;-75
2021/07/20 05:31:29;;;;;;;;;;;15.90;99.90;;;;;;5063274;28;19916;-74
2021/07/20 05:33:55;;;;;;;;;;;16.00;99.90;;;;;;5060850;28;19963;-75
2021/07/20 05:36:21;;;;;;;;;;;16.00;99.90;;;;;;5065967;28;20341;-75
2021/07/20 05:38:46;;;;;;;;;;;16.10;99.90;;;;;;5063520;28;19913;-75
2021/07/20 05:41:12;;;;;;;;;;;16.20;99.90;;;;;;5063425;28;19912;-75
2021/07/20 05:43:37;;;;;;;;;;;16.30;99.90;;;;;;5062428;28;19914;-75
2021/07/20 05:46:03;;;;;;;;;;;16.40;99.90;;;;;;5064509;28;20015;-75
2021/07/20 05:48:48;;;;;;;;;;;16.50;99.90;;;;;;5059301;28;20280;-75
2021/07/20 05:51:15;;;;;;;;;;;16.60;99.90;;;;;;5062904;28;19913;-75
2021/07/20 05:53:40;;;;;;;;;;;16.70;99.90;;;;;;5065631;28;20007;-75
2021/07/20 05:56:07;;;;;;;;;;;16.80;99.90;;;;;;5065333;28;19982;-75
2021/07/20 05:58:32;;;;;;;;;;;16.80;99.90;;;;;;5069328;28;19913;-76
2021/07/20 06:00:59;;;;;;;;;;;16.80;99.90;;;;;;5066837;28;20319;-76
2021/07/20 06:03:26;;;;;;;;;;;17.00;99.90;;;;;;5073897;28;20310;-76
2021/07/20 06:05:53;;;;;;;;;;;17.10;99.90;;;;;;5073759;28;19912;-76
2021/07/20 06:08:19;;;;;;;;;;;17.10;99.90;;;;;;5063260;28;19939;-74
2021/07/20 06:10:47;;;;;;;;;;;17.30;99.90;;;;;;5067797;28;19966;-76
2021/07/20 06:13:14;;;;;;;;;;;17.70;99.90;;;;;;5065067;28;19979;-79
2021/07/20 06:15:42;;;;;;;;;;;18.30;99.90;;;;;;5075597;28;19912;-77
2021/07/20 06:18:08;;;;;;;;;;;18.50;99.90;;;;;;5069250;28;19920;-76
2021/07/20 06:20:36;;;;;;;;;;;18.50;99.90;;;;;;5058403;28;19916;-77
2021/07/20 06:23:02;;;;;;;;;;;18.50;99.90;;;;;;5064180;28;19912;-76
2021/07/20 06:25:28;;;;;;;;;;;18.40;99.90;;;;;;5088485;28;20011;-77
2021/07/20 06:27:55;;;;;;;;;;;18.50;99.90;;;;;;5070123;28;19947;-77
2021/07/20 06:30:20;;;;;;;;;;;18.60;99.90;;;;;;5063283;28;19913;-75
2021/07/20 06:32:47;;;;;;;;;;;19.80;99.90;;;;;;5070592;28;19913;-75
2021/07/20 06:35:14;;;;;;;;;;;21.10;99.90;;;;;;5071883;28;19938;-78
2021/07/20 06:37:41;;;;;;;;;;;22.20;99.90;;;;;;5078650;28;19920;-76
2021/07/20 06:40:07;;;;;;;;;;;23.30;99.90;;;;;;5077643;28;19919;-76
2021/07/20 06:42:33;;;;;;;;;;;24.30;99.50;;;;;;5062140;28;19967;-75
2021/07/20 06:44:59;;;;;;;;;;;25.00;98.70;;;;;;5065364;28;20321;-76
2021/07/20 06:47:24;;;;;;;;;;;25.50;97.10;;;;;;5065442;28;20032;-76
2021/07/20 06:49:50;;;;;;;;;;;25.60;97.20;;;;;;5070169;28;19913;-76
2021/07/20 06:52:16;;;;;;;;;;;25.70;97.20;;;;;;5072679;28;19920;-76
2021/07/20 06:54:45;;;;;;;;;;;25.90;96.80;;;;;;5074186;28;19995;-75
2021/07/20 06:57:13;;;;;;;;;;;25.90;96.10;;;;;;5072446;28;19947;-76
2021/07/20 06:59:39;;;;;;;;;;;25.30;96.40;;;;;;5074592;28;19912;-75
2021/07/20 07:02:05;;;;;;;;;;;24.50;97.60;;;;;;5070818;28;19917;-75
2021/07/20 07:04:45;;;;;;;;;;;23.70;98.10;;;;;;5071109;28;19913;-76
2021/07/20 07:07:11;;;;;;;;;;;22.90;98.50;;;;;;5073746;28;19991;-75
2021/07/20 07:09:37;;;;;;;;;;;22.10;98.80;;;;;;5071419;28;19920;-75
2021/07/20 07:12:04;;;;;;;;;;;21.50;99.90;;;;;;5068119;28;20282;-75
2021/07/20 07:14:30;;;;;;;;;;;21.30;99.50;;;;;;5060119;28;19913;-76
2021/07/20 07:16:56;;;;;;;;;;;21.50;99.20;;;;;;5070900;28;19912;-77
2021/07/20 07:19:22;;;;;;;;;;;21.90;99.50;;;;;;5070401;28;19919;-76
2021/07/20 07:21:49;;;;;;;;;;;22.60;98.70;;;;;;5069878;28;19916;-77
2021/07/20 07:24:16;;;;;;;;;;;23.10;98.80;;;;;;5080644;28;19966;-76
2021/07/20 07:26:42;;;;;;;;;;;23.30;98.20;;;;;;5080124;28;20373;-77
2021/07/20 07:29:11;;;;;;;;;;;23.60;97.90;;;;;;5069527;28;19924;-76
2021/07/20 07:31:37;;;;;;;;;;;23.80;97.20;;;;;;5070593;28;19988;-75
2021/07/20 07:34:03;;;;;;;;;;;23.60;97.60;;;;;;5083705;28;19920;-75
2021/07/20 07:36:29;;;;;;;;;;;23.40;98.60;;;;;;5077258;28;19920;-77
2021/07/20 07:38:55;;;;;;;;;;;23.20;98.60;;;;;;5080610;28;19920;-76
2021/07/20 07:41:23;;;;;;;;;;;22.90;99.10;;;;;;5081356;28;19913;-77
2021/07/20 07:43:49;;;;;;;;;;;22.60;99.50;;;;;;5087338;28;19940;-75
2021/07/20 07:46:15;;;;;;;;;;;22.30;99.30;;;;;;5082621;28;19924;-76
2021/07/20 07:48:41;;;;;;;;;;;21.90;99.50;;;;;;5087084;28;20019;-74
2021/07/20 07:51:08;;;;;;;;;;;21.60;99.60;;;;;;5070423;28;19912;-77
2021/07/20 07:53:37;;;;;;;;;;;21.70;99.20;;;;;;5071288;28;19913;-76
2021/07/20 07:56:04;;;;;;;;;;;21.60;99.90;;;;;;5064082;28;20311;-77
2021/07/20 07:58:29;;;;;;;;;;;21.40;99.80;;;;;;5072023;28;19913;-76
2021/07/20 08:00:59;;;;;;;;;;;21.60;99.80;;;;;;5075316;28;19917;-76
2021/07/20 08:03:28;;;;;;;;;;;21.80;99.90;;;;;;5062214;28;19923;-76
2021/07/20 08:05:54;;;;;;;;;;;21.90;99.80;;;;;;5063335;28;19973;-76
2021/07/20 08:08:20;;;;;;;;;;;21.90;99.80;;;;;;5060340;28;19921;-77
2021/07/20 08:10:46;;;;;;;;;;;22.30;98.80;;;;;;5061016;28;19917;-76
2021/07/20 08:13:13;;;;;;;;;;;22.50;99.60;;;;;;5063244;28;20254;-77
2021/07/20 08:15:39;;;;;;;;;;;22.80;98.60;;;;;;5062527;28;19913;-77
2021/07/20 08:18:05;;;;;;;;;;;22.70;99.10;;;;;;5062819;28;19923;-77
2021/07/20 08:20:32;;;;;;;;;;;22.40;98.70;;;;;;5061286;28;19921;-77
2021/07/20 08:22:57;;;;;;;;;;;22.10;99.50;;;;;;5063947;28;19913;-77
2021/07/20 08:25:28;;;;;;;;;;;22.50;98.50;;;;;;5064175;28;19918;-77
2021/07/20 08:27:57;;;;;;;;;;;22.70;98.80;;;;;;5063071;28;19952;-77
2021/07/20 08:30:23;;;;;;;;;;;23.10;98.90;;;;;;5059253;28;19913;-76
2021/07/20 08:32:54;;;;;;;;;;;23.20;98.60;;;;;;5063322;28;19913;-77
2021/07/20 08:35:23;;;;;;;;;;;23.40;98.30;;;;;;5059149;28;19920;-78
2021/07/20 08:37:50;;;;;;;;;;;23.20;97.90;;;;;;5064658;28;19920;-77
2021/07/20 08:40:35;;;;;;;;;;;22.90;98.30;;;;;;5066295;28;19917;-77
2021/07/20 08:43:08;;;;;;;;;;;22.50;98.70;;;;;;5060071;28;20312;-75
2021/07/20 08:45:35;;;;;;;;;;;22.60;99.00;;;;;;5058685;28;19963;-76
2021/07/20 08:48:07;;;;;;;;;;;22.80;98.80;;;;;;5060779;28;19917;-77
2021/07/20 08:50:42;;;;;;;;;;;23.20;98.20;;;;;;5065438;28;20003;-76
2021/07/20 08:53:17;;;;;;;;;;;23.10;98.40;;;;;;5065535;28;20007;-80
2021/07/20 08:55:44;;;;;;;;;;;23.00;98.80;;;;;;5064916;28;20400;-82
2021/07/20 08:58:27;;;;;;;;;;;23.40;98.50;;;;;;5060856;28;20389;-80
2021/07/20 09:00:55;;;;;;;;;;;23.80;97.70;;;;;;5063344;28;19912;-79
2021/07/20 09:03:24;;;;;;;;;;;23.60;98.00;;;;;;5066516;28;19917;-79
2021/07/20 09:05:53;;;;;;;;;;;23.50;97.90;;;;;;5064332;28;20322;-81
2021/07/20 09:08:24;;;;;;;;;;;23.40;98.20;;;;;;5066707;28;20414;-81
2021/07/20 09:10:52;;;;;;;;;;;23.70;98.10;;;;;;5062341;28;19917;-77
2021/07/20 09:13:20;;;;;;;;;;;24.20;97.40;;;;;;5064352;28;19982;-77
2021/07/20 09:15:54;;;;;;;;;;;24.30;97.70;;;;;;5066026;28;19920;-77
2021/07/20 09:18:34;;;;;;;;;;;24.80;97.00;;;;;;5060333;28;19919;-75
2021/07/20 09:21:02;;;;;;;;;;;24.90;97.40;;;;;;5064100;28;19913;-77
2021/07/20 09:23:34;;;;;;;;;;;25.20;97.00;;;;;;5065728;28;19913;-77
2021/07/20 09:26:02;;;;;;;;;;;25.30;96.80;;;;;;5060191;28;19919;-76
2021/07/20 09:28:35;;;;;;;;;;;25.80;95.90;;;;;;5067403;28;20356;-78
2021/07/20 09:31:06;;;;;;;;;;;25.80;95.70;;;;;;5070000;28;19955;-77
2021/07/20 09:33:38;;;;;;;;;;;25.80;95.80;;;;;;5060672;28;20357;-77
2021/07/20 09:36:15;;;;;;;;;;;25.10;96.00;;;;;;5064204;28;19971;-77
2021/07/20 09:38:58;;;;;;;;;;;24.20;96.90;;;;;;5059250;28;19913;-76
2021/07/20 09:41:26;;;;;;;;;;;23.90;97.60;;;;;;5058073;28;19912;-76
2021/07/20 09:43:52;;;;;;;;;;;23.60;98.00;;;;;;5061143;28;19913;-77
2021/07/20 09:46:19;;;;;;;;;;;24.00;97.10;;;;;;5062325;28;19967;-77
2021/07/20 09:48:56;;;;;;;;;;;24.50;96.60;;;;;;5064575;28;19958;-77
2021/07/20 09:51:45;;;;;;;;;;;24.00;97.00;;;;;;5066262;28;20369;-77
2021/07/20 09:54:19;;;;;;;;;;;23.50;97.60;;;;;;5072383;28;19912;-77
2021/07/20 09:56:54;;;;;;;;;;;23.20;98.10;;;;;;5059619;28;19912;-76
2021/07/20 09:59:46;;;;;;;;;;;23.20;97.90;;;;;;5056381;28;20292;-76
2021/07/20 10:02:30;;;;;;;;;;;22.80;98.60;;;;;;5040252;28;19931;-77
2021/07/20 10:05:02;;;;;;;;;;;23.30;98.60;;;;;;5061755;28;19913;-76
2021/07/20 10:07:30;;;;;;;;;;;23.50;97.60;;;;;;5056717;28;19967;-77
2021/07/20 10:10:22;;;;;;;;;;;24.00;97.70;;;;;;5061155;28;20410;-77
2021/07/20 10:12:47;;;;;;;;;;;23.90;97.30;;;;;;5052284;28;20011;-77
2021/07/20 10:15:15;;;;;;;;;;;23.70;97.40;;;;;;5066199;28;20003;-77
2021/07/20 10:18:02;;;;;;;;;;;23.60;98.20;;;;;;5069721;28;19912;-77
2021/07/20 10:20:40;;;;;;;;;;;23.70;97.60;;;;;;5058798;28;19913;-77
2021/07/20 10:23:19;;;;;;;;;;;23.50;97.80;;;;;;5060502;28;20189;-77
2021/07/20 10:26:00;;;;;;;;;;;23.50;98.60;;;;;;5058121;28;19917;-77
2021/07/20 10:28:29;;;;;;;;;;;23.30;98.10;;;;;;5061157;28;19968;-77
2021/07/20 10:31:12;;;;;;;;;;;23.80;98.00;;;;;;5064907;28;19938;-77
2021/07/20 10:33:43;;;;;;;;;;;23.30;98.30;;;;;;5056138;28;19921;-77
2021/07/20 10:36:13;;;;;;;;;;;22.60;99.00;;;;;;5070284;28;19954;-77
2021/07/20 10:38:41;;;;;;;;;;;22.50;99.80;;;;;;5067103;28;19913;-77
2021/07/20 10:41:07;;;;;;;;;;;22.60;98.90;;;;;;5067106;28;19950;-76
2021/07/20 10:43:37;;;;;;;;;;;22.70;99.10;;;;;;5069330;28;19913;-78
2021/07/20 10:46:04;;;;;;;;;;;22.40;99.50;;;;;;5055261;28;19912;-76
2021/07/20 10:48:31;;;;;;;;;;;22.10;99.20;;;;;;5062530;28;19923;-78
2021/07/20 10:51:18;;;;;;;;;;;22.20;99.50;;;;;;5055199;28;19956;-72
2021/07/20 10:54:03;;;;;;;;;;;22.40;99.90;;;;;;5062879;28;19939;-77
2021/07/20 10:56:33;;;;;;;;;;;22.90;98.20;;;;;;5066601;28;20053;-78
2021/07/20 10:59:17;;;;;;;;;;;23.50;98.20;;;;;;5071359;28;19912;-80
2021/07/20 11:01:54;;;;;;;;;;;23.80;98.00;;;;;;5066010;28;20033;-77
2021/07/20 11:04:39;;;;;;;;;;;23.20;98.20;;;;;;5065575;28;19932;-76
2021/07/20 11:07:05;;;;;;;;;;;23.00;99.10;;;;;;5054016;28;19917;-78
2021/07/20 11:09:31;;;;;;;;;;;23.00;99.20;;;;;;5057566;28;20003;-76
2021/07/20 11:12:01;;;;;;;;;;;23.20;98.60;;;;;;5064677;28;19948;-77
2021/07/20 11:14:28;;;;;;;;;;;23.50;98.70;;;;;;5051854;28;19955;-75
2021/07/20 11:16:55;;;;;;;;;;;23.80;97.80;;;;;;5057690;28;19921;-76
2021/07/20 11:19:22;;;;;;;;;;;23.80;98.20;;;;;;5065684;28;19913;-76
2021/07/20 11:21:48;;;;;;;;;;;23.90;97.30;;;;;;5066482;28;19913;-76
2021/07/20 11:24:16;;;;;;;;;;;23.80;98.10;;;;;;5052277;28;19917;-76
2021/07/20 11:26:42;;;;;;;;;;;24.00;97.20;;;;;;5053684;28;19938;-76
2021/07/20 11:29:07;;;;;;;;;;;24.10;97.80;;;;;;5054019;28;20281;-77
2021/07/20 11:31:37;;;;;;;;;;;24.10;97.70;;;;;;5053859;28;20015;-76
2021/07/20 11:34:06;;;;;;;;;;;24.20;97.70;;;;;;5053830;28;19939;-76
2021/07/20 11:36:34;;;;;;;;;;;24.20;97.70;;;;;;5052581;28;20015;-76
2021/07/20 11:39:00;;;;;;;;;;;23.80;97.90;;;;;;5054104;28;19944;-76
2021/07/20 11:41:32;;;;;;;;;;;23.60;97.90;;;;;;5053710;28;19933;-76
2021/07/20 11:44:10;;;;;;;;;;;23.60;98.20;;;;;;5062735;28;19909;-75
2021/07/20 11:46:49;;;;;;;;;;;23.70;97.80;;;;;;5057021;28;20357;-77
2021/07/20 11:49:20;;;;;;;;;;;24.00;98.20;;;;;;5062366;28;20288;-77
2021/07/20 11:51:50;;;;;;;;;;;24.10;98.10;;;;;;5074725;28;19909;-76
2021/07/20 11:54:34;;;;;;;;;;;23.90;97.70;;;;;;5071763;28;19977;-77
2021/07/20 11:57:09;;;;;;;;;;;23.80;97.50;;;;;;5078096;28;20003;-77
2021/07/20 11:59:55;;;;;;;;;;;23.60;97.60;;;;;;5077785;28;19913;-76
2021/07/20 12:02:40;;;;;;;;;;;23.60;97.70;;;;;;5065913;28;19916;-77
2021/07/20 12:05:24;;;;;;;;;;;24.00;98.00;;;;;;5077965;28;19913;-77
2021/07/20 12:07:54;;;;;;;;;;;24.30;97.80;;;;;;5078141;28;19917;-77
2021/07/20 12:10:38;;;;;;;;;;;24.30;97.40;;;;;;5077761;28;20376;-76
2021/07/20 12:13:06;;;;;;;;;;;24.20;97.80;;;;;;5077889;28;19909;-77
2021/07/20 12:15:32;;;;;;;;;;;24.20;97.50;;;;;;5069287;28;20373;-77
2021/07/20 12:18:00;;;;;;;;;;;24.00;97.90;;;;;;5057446;28;19909;-77
2021/07/20 12:20:25;;;;;;;;;;;23.90;97.50;;;;;;5072283;28;19908;-75
2021/07/20 12:22:52;;;;;;;;;;;23.90;97.50;;;;;;5056918;28;20283;-76
2021/07/20 12:25:18;;;;;;;;;;;24.10;97.80;;;;;;5057085;28;19909;-76
2021/07/20 12:27:45;;;;;;;;;;;24.20;97.30;;;;;;5056922;28;19923;-77
2021/07/20 12:30:11;;;;;;;;;;;24.00;97.50;;;;;;5076304;28;19908;-77
2021/07/20 12:32:38;;;;;;;;;;;24.00;97.80;;;;;;5056993;28;19916;-77
2021/07/20 12:35:05;;;;;;;;;;;23.90;97.60;;;;;;5057138;28;20129;-77
2021/07/20 12:37:30;;;;;;;;;;;24.00;99.10;;;;;;5056214;28;19916;-77
2021/07/20 12:39:57;;;;;;;;;;;24.00;97.60;;;;;;5088872;28;19908;-77
2021/07/20 12:42:23;;;;;;;;;;;24.00;97.40;;;;;;5056490;28;19909;-77
2021/07/20 12:45:01;;;;;;;;;;;24.00;98.00;;;;;;5056954;28;19923;-77
2021/07/20 12:47:27;;;;;;;;;;;24.10;98.20;;;;;;5056609;28;20023;-77
2021/07/20 12:49:52;;;;;;;;;;;24.00;97.20;;;;;;5056868;28;19952;-77
2021/07/20 12:52:18;;;;;;;;;;;24.00;97.20;;;;;;5056666;28;20371;-76
2021/07/20 12:54:44;;;;;;;;;;;24.20;98.00;;;;;;5056707;28;19960;-77
2021/07/20 12:57:10;;;;;;;;;;;24.50;96.60;;;;;;5056714;28;19940;-77
2021/07/20 12:59:40;;;;;;;;;;;24.80;97.00;;;;;;5056694;28;19959;-77
2021/07/20 13:02:12;;;;;;;;;;;24.90;96.60;;;;;;5056549;28;19916;-77
2021/07/20 13:04:37;;;;;;;;;;;25.10;96.80;;;;;;5056695;28;20387;-77
2021/07/20 13:07:03;;;;;;;;;;;25.10;96.60;;;;;;5089599;28;20127;-77
2021/07/20 13:09:30;;;;;;;;;;;25.10;96.30;;;;;;5056405;28;19920;-77
2021/07/20 13:11:56;;;;;;;;;;;25.00;96.00;;;;;;5056449;28;20399;-77
2021/07/20 13:14:22;;;;;;;;;;;24.70;96.40;;;;;;5056360;28;19909;-77
2021/07/20 13:16:47;;;;;;;;;;;24.60;96.80;;;;;;5088882;28;19913;-77
2021/07/20 13:19:15;;;;;;;;;;;24.50;97.30;;;;;;5056823;28;19915;-77
2021/07/20 13:21:42;;;;;;;;;;;24.40;97.60;;;;;;5055210;28;19915;-77
2021/07/20 13:24:08;;;;;;;;;;;24.50;97.30;;;;;;5088610;28;19960;-77
2021/07/20 13:26:36;;;;;;;;;;;24.80;97.10;;;;;;5056150;28;19920;-77
2021/07/20 13:29:03;;;;;;;;;;;24.90;96.40;;;;;;5056048;28;19920;-77
2021/07/20 13:31:33;;;;;;;;;;;25.00;96.80;;;;;;5056225;28;20289;-77
2021/07/20 13:33:59;;;;;;;;;;;25.20;96.10;;;;;;5088222;28;20365;-77
2021/07/20 13:36:25;;;;;;;;;;;25.20;95.60;;;;;;5056061;28;19972;-77
2021/07/20 13:38:52;;;;;;;;;;;25.10;96.10;;;;;;5055961;28;20365;-77
2021/07/20 13:41:17;;;;;;;;;;;25.00;96.50;;;;;;5055980;28;19915;-77
2021/07/20 13:43:44;;;;;;;;;;;24.80;96.20;;;;;;5055841;28;19908;-77
2021/07/20 13:46:10;;;;;;;;;;;24.80;96.20;;;;;;5055856;28;19909;-77
2021/07/20 13:48:42;;;;;;;;;;;24.80;96.40;;;;;;5055834;28;19953;-77
2021/07/20 13:51:09;;;;;;;;;;;24.80;96.40;;;;;;5055891;28;19908;-77
2021/07/20 13:53:36;;;;;;;;;;;24.70;96.90;;;;;;5055603;28;19963;-76
2021/07/20 13:56:11;;;;;;;;;;;24.70;96.60;;;;;;5055556;28;19944;-77
2021/07/20 13:58:37;;;;;;;;;;;24.80;96.70;;;;;;5055639;28;19916;-77
2021/07/20 14:01:03;;;;;;;;;;;24.90;96.50;;;;;;5055534;28;19915;-76
2021/07/20 14:03:29;;;;;;;;;;;24.90;97.10;;;;;;5055343;28;20277;-77
2021/07/20 14:05:55;;;;;;;;;;;24.90;95.70;;;;;;5055417;28;19912;-77
2021/07/20 14:08:21;;;;;;;;;;;24.80;96.50;;;;;;5087241;28;19921;-76
2021/07/20 14:10:48;;;;;;;;;;;24.80;96.40;;;;;;5087303;28;19909;-77
2021/07/20 14:13:14;;;;;;;;;;;24.80;96.10;;;;;;5055428;28;20290;-76
2021/07/20 14:15:40;;;;;;;;;;;24.80;96.50;;;;;;5055303;28;20344;-77
2021/07/20 14:18:07;;;;;;;;;;;24.70;97.10;;;;;;5055309;28;19909;-77
2021/07/20 14:20:33;;;;;;;;;;;24.70;96.60;;;;;;5055348;28;19908;-77
2021/07/20 14:23:00;;;;;;;;;;;24.80;96.70;;;;;;5055271;28;19909;-77
2021/07/20 14:25:25;;;;;;;;;;;25.00;96.70;;;;;;5055057;28;20366;-77
2021/07/20 14:27:54;;;;;;;;;;;25.10;96.90;;;;;;5054859;28;20007;-77